sensor_id;sensor_type;location;lat;lon;timestamp;P1;durP1;ratioP1;P2;durP2;ratioP2
47599;SDS011;33323;52.124;6.018;2022-07-21T00:01:58;18.55;;;14.02;;
47599;SDS011;33323;52.124;6.018;2022-07-21T00:04:26;22.30;;;13.35;;
47599;SDS011;33323;52.124;6.018;2022-07-21T00:06:53;16.23;;;11.68;;
47599;SDS011;33323;52.124;6.018;2022-07-21T00:09:20;16.10;;;12.63;;
47599;SDS011;33323;52.124;6.018;2022-07-21T00:11:47;18.25;;;12.50;;
47599;SDS011;33323;52.124;6.018;2022-07-21T00:14:14;16.73;;;11.68;;
47599;SDS011;33323;52.124;6.018;2022-07-21T00:16:41;15.13;;;11.50;;
47599;SDS011;33323;52.124;6.018;2022-07-21T00:19:10;15.10;;;11.38;;
47599;SDS011;33323;52.124;6.018;2022-07-21T00:21:37;15.35;;;10.75;;
47599;SDS011;33323;52.124;6.018;2022-07-21T00:24:04;12.65;;;9.48;;
47599;SDS011;33323;52.124;6.018;2022-07-21T00:26:32;11.88;;;8.73;;
47599;SDS011;33323;52.124;6.018;2022-07-21T00:28:59;11.50;;;8.18;;
47599;SDS011;33323;52.124;6.018;2022-07-21T00:31:26;12.00;;;8.40;;
47599;SDS011;33323;52.124;6.018;2022-07-21T00:33:53;11.88;;;9.20;;
47599;SDS011;33323;52.124;6.018;2022-07-21T00:36:20;11.20;;;9.00;;
47599;SDS011;33323;52.124;6.018;2022-07-21T00:38:47;13.80;;;9.35;;
47599;SDS011;33323;52.124;6.018;2022-07-21T00:41:15;13.52;;;9.02;;
47599;SDS011;33323;52.124;6.018;2022-07-21T00:43:42;13.85;;;10.38;;
47599;SDS011;33323;52.124;6.018;2022-07-21T00:46:09;12.38;;;9.48;;
47599;SDS011;33323;52.124;6.018;2022-07-21T00:48:36;10.48;;;8.38;;
47599;SDS011;33323;52.124;6.018;2022-07-21T00:51:04;10.85;;;8.07;;
47599;SDS011;33323;52.124;6.018;2022-07-21T00:53:32;12.18;;;8.63;;
47599;SDS011;33323;52.124;6.018;2022-07-21T00:55:59;12.70;;;7.28;;
47599;SDS011;33323;52.124;6.018;2022-07-21T00:58:27;11.23;;;6.82;;
47599;SDS011;33323;52.124;6.018;2022-07-21T01:00:54;10.25;;;6.90;;
47599;SDS011;33323;52.124;6.018;2022-07-21T01:03:21;9.10;;;6.53;;
47599;SDS011;33323;52.124;6.018;2022-07-21T01:05:48;11.25;;;7.63;;
47599;SDS011;33323;52.124;6.018;2022-07-21T01:08:15;10.93;;;7.80;;
47599;SDS011;33323;52.124;6.018;2022-07-21T01:10:42;10.23;;;6.75;;
47599;SDS011;33323;52.124;6.018;2022-07-21T01:13:09;10.23;;;7.40;;
47599;SDS011;33323;52.124;6.018;2022-07-21T01:15:37;13.05;;;7.47;;
47599;SDS011;33323;52.124;6.018;2022-07-21T01:18:04;9.15;;;7.10;;
47599;SDS011;33323;52.124;6.018;2022-07-21T01:20:32;8.77;;;7.47;;
47599;SDS011;33323;52.124;6.018;2022-07-21T01:23:02;11.32;;;7.70;;
47599;SDS011;33323;52.124;6.018;2022-07-21T01:25:30;9.45;;;7.50;;
47599;SDS011;33323;52.124;6.018;2022-07-21T01:27:57;10.57;;;7.43;;
47599;SDS011;33323;52.124;6.018;2022-07-21T01:30:25;9.23;;;7.50;;
47599;SDS011;33323;52.124;6.018;2022-07-21T01:32:52;10.23;;;7.18;;
47599;SDS011;33323;52.124;6.018;2022-07-21T01:35:19;8.30;;;6.95;;
47599;SDS011;33323;52.124;6.018;2022-07-21T01:37:47;10.30;;;7.38;;
47599;SDS011;33323;52.124;6.018;2022-07-21T01:40:15;8.35;;;7.07;;
47599;SDS011;33323;52.124;6.018;2022-07-21T01:43:02;10.18;;;7.32;;
47599;SDS011;33323;52.124;6.018;2022-07-21T01:45:37;12.85;;;7.53;;
47599;SDS011;33323;52.124;6.018;2022-07-21T01:48:06;10.13;;;7.63;;
47599;SDS011;33323;52.124;6.018;2022-07-21T01:50:33;8.65;;;7.30;;
47599;SDS011;33323;52.124;6.018;2022-07-21T01:53:01;11.00;;;7.22;;
47599;SDS011;33323;52.124;6.018;2022-07-21T01:55:28;8.48;;;6.28;;
47599;SDS011;33323;52.124;6.018;2022-07-21T01:57:55;10.57;;;7.35;;
47599;SDS011;33323;52.124;6.018;2022-07-21T02:00:23;9.45;;;8.30;;
47599;SDS011;33323;52.124;6.018;2022-07-21T02:02:50;10.82;;;7.65;;
47599;SDS011;33323;52.124;6.018;2022-07-21T02:05:18;10.25;;;7.68;;
47599;SDS011;33323;52.124;6.018;2022-07-21T02:07:45;12.35;;;7.88;;
47599;SDS011;33323;52.124;6.018;2022-07-21T02:10:12;10.82;;;7.78;;
47599;SDS011;33323;52.124;6.018;2022-07-21T02:12:39;12.40;;;8.48;;
47599;SDS011;33323;52.124;6.018;2022-07-21T02:15:06;10.90;;;8.85;;
47599;SDS011;33323;52.124;6.018;2022-07-21T02:17:34;12.05;;;10.05;;
47599;SDS011;33323;52.124;6.018;2022-07-21T02:20:01;13.40;;;10.45;;
47599;SDS011;33323;52.124;6.018;2022-07-21T02:22:28;13.90;;;10.07;;
47599;SDS011;33323;52.124;6.018;2022-07-21T02:24:55;12.50;;;10.40;;
47599;SDS011;33323;52.124;6.018;2022-07-21T02:27:22;16.70;;;11.15;;
47599;SDS011;33323;52.124;6.018;2022-07-21T02:29:49;15.32;;;11.13;;
47599;SDS011;33323;52.124;6.018;2022-07-21T02:32:16;15.02;;;10.15;;
47599;SDS011;33323;52.124;6.018;2022-07-21T02:34:45;13.60;;;11.23;;
47599;SDS011;33323;52.124;6.018;2022-07-21T02:37:12;12.82;;;10.73;;
47599;SDS011;33323;52.124;6.018;2022-07-21T02:39:39;14.02;;;10.98;;
47599;SDS011;33323;52.124;6.018;2022-07-21T02:42:06;16.63;;;10.82;;
47599;SDS011;33323;52.124;6.018;2022-07-21T02:44:34;15.68;;;10.85;;
47599;SDS011;33323;52.124;6.018;2022-07-21T02:47:03;16.40;;;10.65;;
47599;SDS011;33323;52.124;6.018;2022-07-21T02:49:30;12.82;;;10.85;;
47599;SDS011;33323;52.124;6.018;2022-07-21T02:51:57;15.00;;;10.43;;
47599;SDS011;33323;52.124;6.018;2022-07-21T02:54:24;13.48;;;10.10;;
47599;SDS011;33323;52.124;6.018;2022-07-21T02:56:52;15.55;;;11.63;;
47599;SDS011;33323;52.124;6.018;2022-07-21T02:59:19;15.05;;;9.80;;
47599;SDS011;33323;52.124;6.018;2022-07-21T03:01:46;14.57;;;11.07;;
47599;SDS011;33323;52.124;6.018;2022-07-21T03:04:13;14.48;;;11.13;;
47599;SDS011;33323;52.124;6.018;2022-07-21T03:06:41;13.20;;;10.93;;
47599;SDS011;33323;52.124;6.018;2022-07-21T03:09:08;15.20;;;11.52;;
47599;SDS011;33323;52.124;6.018;2022-07-21T03:11:36;14.63;;;11.25;;
47599;SDS011;33323;52.124;6.018;2022-07-21T03:14:03;16.05;;;10.90;;
47599;SDS011;33323;52.124;6.018;2022-07-21T03:16:30;14.32;;;10.45;;
47599;SDS011;33323;52.124;6.018;2022-07-21T03:18:57;11.93;;;9.98;;
47599;SDS011;33323;52.124;6.018;2022-07-21T03:21:24;18.15;;;11.48;;
47599;SDS011;33323;52.124;6.018;2022-07-21T03:23:51;16.98;;;13.60;;
47599;SDS011;33323;52.124;6.018;2022-07-21T03:26:18;18.70;;;14.32;;
47599;SDS011;33323;52.124;6.018;2022-07-21T03:28:45;16.95;;;14.35;;
47599;SDS011;33323;52.124;6.018;2022-07-21T03:31:12;16.27;;;13.85;;
47599;SDS011;33323;52.124;6.018;2022-07-21T03:33:39;19.15;;;13.85;;
47599;SDS011;33323;52.124;6.018;2022-07-21T03:36:06;18.83;;;14.13;;
47599;SDS011;33323;52.124;6.018;2022-07-21T03:38:34;17.83;;;12.95;;
47599;SDS011;33323;52.124;6.018;2022-07-21T03:41:01;17.42;;;13.88;;
47599;SDS011;33323;52.124;6.018;2022-07-21T03:43:28;21.15;;;14.32;;
47599;SDS011;33323;52.124;6.018;2022-07-21T03:45:55;17.70;;;13.55;;
47599;SDS011;33323;52.124;6.018;2022-07-21T03:48:22;18.48;;;13.77;;
47599;SDS011;33323;52.124;6.018;2022-07-21T03:50:49;21.27;;;15.25;;
47599;SDS011;33323;52.124;6.018;2022-07-21T03:53:16;22.02;;;14.38;;
47599;SDS011;33323;52.124;6.018;2022-07-21T03:55:43;18.85;;;14.80;;
47599;SDS011;33323;52.124;6.018;2022-07-21T03:58:12;21.55;;;16.42;;
47599;SDS011;33323;52.124;6.018;2022-07-21T04:00:41;24.13;;;17.48;;
47599;SDS011;33323;52.124;6.018;2022-07-21T04:03:10;21.42;;;16.60;;
47599;SDS011;33323;52.124;6.018;2022-07-21T04:05:39;21.08;;;15.63;;
47599;SDS011;33323;52.124;6.018;2022-07-21T04:08:08;21.90;;;16.30;;
47599;SDS011;33323;52.124;6.018;2022-07-21T04:10:38;23.30;;;17.20;;
47599;SDS011;33323;52.124;6.018;2022-07-21T04:13:07;27.23;;;18.10;;
47599;SDS011;33323;52.124;6.018;2022-07-21T04:15:39;25.58;;;18.90;;
47599;SDS011;33323;52.124;6.018;2022-07-21T04:18:07;26.13;;;19.90;;
47599;SDS011;33323;52.124;6.018;2022-07-21T04:20:35;26.33;;;19.10;;
47599;SDS011;33323;52.124;6.018;2022-07-21T04:23:02;28.00;;;19.90;;
47599;SDS011;33323;52.124;6.018;2022-07-21T04:25:29;26.55;;;20.15;;
47599;SDS011;33323;52.124;6.018;2022-07-21T04:27:56;30.38;;;19.88;;
47599;SDS011;33323;52.124;6.018;2022-07-21T04:30:25;27.30;;;20.02;;
47599;SDS011;33323;52.124;6.018;2022-07-21T04:32:52;26.65;;;20.15;;
47599;SDS011;33323;52.124;6.018;2022-07-21T04:35:19;28.23;;;21.30;;
47599;SDS011;33323;52.124;6.018;2022-07-21T04:37:47;32.65;;;21.92;;
47599;SDS011;33323;52.124;6.018;2022-07-21T04:40:14;31.05;;;21.67;;
47599;SDS011;33323;52.124;6.018;2022-07-21T04:42:42;32.42;;;22.17;;
47599;SDS011;33323;52.124;6.018;2022-07-21T04:45:10;28.25;;;21.27;;
47599;SDS011;33323;52.124;6.018;2022-07-21T04:47:43;34.70;;;21.75;;
47599;SDS011;33323;52.124;6.018;2022-07-21T04:50:13;31.92;;;21.83;;
47599;SDS011;33323;52.124;6.018;2022-07-21T04:52:40;28.95;;;22.27;;
47599;SDS011;33323;52.124;6.018;2022-07-21T04:55:08;30.25;;;22.55;;
47599;SDS011;33323;52.124;6.018;2022-07-21T04:57:45;30.85;;;21.20;;
47599;SDS011;33323;52.124;6.018;2022-07-21T05:00:16;34.88;;;23.13;;
47599;SDS011;33323;52.124;6.018;2022-07-21T05:02:48;32.88;;;22.70;;
47599;SDS011;33323;52.124;6.018;2022-07-21T05:05:17;35.45;;;24.13;;
47599;SDS011;33323;52.124;6.018;2022-07-21T05:07:45;32.55;;;23.20;;
47599;SDS011;33323;52.124;6.018;2022-07-21T05:10:13;33.05;;;22.83;;
47599;SDS011;33323;52.124;6.018;2022-07-21T05:12:41;36.22;;;23.55;;
47599;SDS011;33323;52.124;6.018;2022-07-21T05:15:08;37.63;;;24.08;;
47599;SDS011;33323;52.124;6.018;2022-07-21T05:17:38;34.55;;;22.70;;
47599;SDS011;33323;52.124;6.018;2022-07-21T05:20:06;37.22;;;25.15;;
47599;SDS011;33323;52.124;6.018;2022-07-21T05:22:35;35.80;;;25.38;;
47599;SDS011;33323;52.124;6.018;2022-07-21T05:25:02;34.72;;;23.15;;
47599;SDS011;33323;52.124;6.018;2022-07-21T05:27:31;35.15;;;24.35;;
47599;SDS011;33323;52.124;6.018;2022-07-21T05:29:58;36.13;;;24.30;;
47599;SDS011;33323;52.124;6.018;2022-07-21T05:32:25;36.15;;;24.08;;
47599;SDS011;33323;52.124;6.018;2022-07-21T05:34:52;37.25;;;25.73;;
47599;SDS011;33323;52.124;6.018;2022-07-21T05:37:19;41.45;;;27.00;;
47599;SDS011;33323;52.124;6.018;2022-07-21T05:39:46;40.63;;;27.08;;
47599;SDS011;33323;52.124;6.018;2022-07-21T05:42:13;42.88;;;26.80;;
47599;SDS011;33323;52.124;6.018;2022-07-21T05:44:40;40.92;;;26.85;;
47599;SDS011;33323;52.124;6.018;2022-07-21T05:47:07;43.92;;;27.90;;
47599;SDS011;33323;52.124;6.018;2022-07-21T05:49:34;42.95;;;29.17;;
47599;SDS011;33323;52.124;6.018;2022-07-21T05:52:02;41.00;;;27.10;;
47599;SDS011;33323;52.124;6.018;2022-07-21T05:54:29;40.88;;;27.73;;
47599;SDS011;33323;52.124;6.018;2022-07-21T05:56:56;43.72;;;28.05;;
47599;SDS011;33323;52.124;6.018;2022-07-21T05:59:24;46.08;;;28.60;;
47599;SDS011;33323;52.124;6.018;2022-07-21T06:01:51;46.67;;;29.27;;
47599;SDS011;33323;52.124;6.018;2022-07-21T06:04:19;45.97;;;29.60;;
47599;SDS011;33323;52.124;6.018;2022-07-21T06:06:46;45.03;;;29.60;;
47599;SDS011;33323;52.124;6.018;2022-07-21T06:09:13;49.38;;;29.65;;
47599;SDS011;33323;52.124;6.018;2022-07-21T06:11:40;54.58;;;32.28;;
47599;SDS011;33323;52.124;6.018;2022-07-21T06:14:07;53.25;;;30.13;;
47599;SDS011;33323;52.124;6.018;2022-07-21T06:16:34;55.50;;;32.67;;
47599;SDS011;33323;52.124;6.018;2022-07-21T06:19:01;57.88;;;33.28;;
47599;SDS011;33323;52.124;6.018;2022-07-21T06:21:29;55.30;;;32.55;;
47599;SDS011;33323;52.124;6.018;2022-07-21T06:23:57;57.58;;;32.63;;
47599;SDS011;33323;52.124;6.018;2022-07-21T06:26:24;52.50;;;31.85;;
47599;SDS011;33323;52.124;6.018;2022-07-21T06:28:52;55.13;;;32.20;;
47599;SDS011;33323;52.124;6.018;2022-07-21T06:31:20;54.80;;;31.63;;
47599;SDS011;33323;52.124;6.018;2022-07-21T06:33:47;51.78;;;32.13;;
47599;SDS011;33323;52.124;6.018;2022-07-21T06:36:15;52.15;;;33.08;;
47599;SDS011;33323;52.124;6.018;2022-07-21T06:38:42;46.38;;;31.35;;
47599;SDS011;33323;52.124;6.018;2022-07-21T06:41:11;49.05;;;31.63;;
47599;SDS011;33323;52.124;6.018;2022-07-21T06:43:38;47.58;;;31.45;;
47599;SDS011;33323;52.124;6.018;2022-07-21T06:46:05;47.10;;;30.90;;
47599;SDS011;33323;52.124;6.018;2022-07-21T06:48:32;49.28;;;32.13;;
47599;SDS011;33323;52.124;6.018;2022-07-21T06:50:59;54.00;;;33.70;;
47599;SDS011;33323;52.124;6.018;2022-07-21T06:53:27;47.30;;;32.53;;
47599;SDS011;33323;52.124;6.018;2022-07-21T06:55:54;48.28;;;33.10;;
47599;SDS011;33323;52.124;6.018;2022-07-21T06:58:29;48.30;;;32.17;;
47599;SDS011;33323;52.124;6.018;2022-07-21T07:01:04;47.47;;;32.17;;
47599;SDS011;33323;52.124;6.018;2022-07-21T07:03:31;46.45;;;32.25;;
47599;SDS011;33323;52.124;6.018;2022-07-21T07:06:01;44.88;;;32.25;;
47599;SDS011;33323;52.124;6.018;2022-07-21T07:08:29;49.45;;;32.35;;
47599;SDS011;33323;52.124;6.018;2022-07-21T07:10:57;51.72;;;34.03;;
47599;SDS011;33323;52.124;6.018;2022-07-21T07:13:24;47.40;;;31.27;;
47599;SDS011;33323;52.124;6.018;2022-07-21T07:16:11;38.88;;;28.95;;
47599;SDS011;33323;52.124;6.018;2022-07-21T07:18:38;47.70;;;30.15;;
47599;SDS011;33323;52.124;6.018;2022-07-21T07:21:05;41.97;;;29.27;;
47599;SDS011;33323;52.124;6.018;2022-07-21T07:23:36;39.88;;;29.42;;
47599;SDS011;33323;52.124;6.018;2022-07-21T07:26:05;40.10;;;28.63;;
47599;SDS011;33323;52.124;6.018;2022-07-21T07:28:32;41.45;;;28.88;;
47599;SDS011;33323;52.124;6.018;2022-07-21T07:30:59;39.17;;;27.90;;
47599;SDS011;33323;52.124;6.018;2022-07-21T07:33:26;41.50;;;28.13;;
47599;SDS011;33323;52.124;6.018;2022-07-21T07:35:53;45.78;;;30.17;;
47599;SDS011;33323;52.124;6.018;2022-07-21T07:38:22;45.30;;;29.98;;
47599;SDS011;33323;52.124;6.018;2022-07-21T07:40:49;41.38;;;29.50;;
47599;SDS011;33323;52.124;6.018;2022-07-21T07:43:17;44.33;;;28.48;;
47599;SDS011;33323;52.124;6.018;2022-07-21T07:45:44;41.85;;;29.85;;
47599;SDS011;33323;52.124;6.018;2022-07-21T07:48:11;45.15;;;31.85;;
47599;SDS011;33323;52.124;6.018;2022-07-21T07:50:38;43.53;;;31.50;;
47599;SDS011;33323;52.124;6.018;2022-07-21T07:53:05;44.13;;;31.17;;
47599;SDS011;33323;52.124;6.018;2022-07-21T07:55:32;45.92;;;31.90;;
47599;SDS011;33323;52.124;6.018;2022-07-21T07:57:59;47.60;;;31.13;;
47599;SDS011;33323;52.124;6.018;2022-07-21T08:00:26;49.97;;;32.25;;
47599;SDS011;33323;52.124;6.018;2022-07-21T08:03:13;46.50;;;32.22;;
47599;SDS011;33323;52.124;6.018;2022-07-21T08:05:40;50.03;;;31.88;;
47599;SDS011;33323;52.124;6.018;2022-07-21T08:08:07;54.08;;;31.80;;
47599;SDS011;33323;52.124;6.018;2022-07-21T08:10:34;44.50;;;29.20;;
47599;SDS011;33323;52.124;6.018;2022-07-21T08:13:08;47.22;;;30.92;;
47599;SDS011;33323;52.124;6.018;2022-07-21T08:15:36;41.17;;;29.85;;
47599;SDS011;33323;52.124;6.018;2022-07-21T08:18:04;42.72;;;28.38;;
47599;SDS011;33323;52.124;6.018;2022-07-21T08:20:32;41.78;;;29.90;;
47599;SDS011;33323;52.124;6.018;2022-07-21T08:23:00;36.30;;;28.38;;
47599;SDS011;33323;52.124;6.018;2022-07-21T08:25:28;37.92;;;28.25;;
47599;SDS011;33323;52.124;6.018;2022-07-21T08:27:55;42.78;;;27.92;;
47599;SDS011;33323;52.124;6.018;2022-07-21T08:30:22;38.55;;;26.27;;
47599;SDS011;33323;52.124;6.018;2022-07-21T08:32:56;38.53;;;25.67;;
47599;SDS011;33323;52.124;6.018;2022-07-21T08:35:24;38.35;;;26.08;;
47599;SDS011;33323;52.124;6.018;2022-07-21T08:37:56;40.85;;;27.75;;
47599;SDS011;33323;52.124;6.018;2022-07-21T08:40:26;38.53;;;25.77;;
47599;SDS011;33323;52.124;6.018;2022-07-21T08:42:56;33.50;;;24.33;;
47599;SDS011;33323;52.124;6.018;2022-07-21T08:45:23;36.35;;;23.67;;
47599;SDS011;33323;52.124;6.018;2022-07-21T08:47:51;40.40;;;26.23;;
47599;SDS011;33323;52.124;6.018;2022-07-21T08:50:20;42.70;;;26.60;;
47599;SDS011;33323;52.124;6.018;2022-07-21T08:52:50;42.33;;;27.02;;
47599;SDS011;33323;52.124;6.018;2022-07-21T08:55:28;37.38;;;23.67;;
47599;SDS011;33323;52.124;6.018;2022-07-21T08:57:57;39.67;;;24.25;;
47599;SDS011;33323;52.124;6.018;2022-07-21T09:00:24;35.33;;;23.52;;
47599;SDS011;33323;52.124;6.018;2022-07-21T09:03:07;40.97;;;23.08;;
47599;SDS011;33323;52.124;6.018;2022-07-21T09:06:01;38.80;;;21.50;;
47599;SDS011;33323;52.124;6.018;2022-07-21T09:08:39;34.83;;;22.73;;
47599;SDS011;33323;52.124;6.018;2022-07-21T09:11:16;36.10;;;21.55;;
47599;SDS011;33323;52.124;6.018;2022-07-21T09:16:39;36.78;;;21.42;;
47599;SDS011;33323;52.124;6.018;2022-07-21T09:19:16;32.45;;;20.55;;
47599;SDS011;33323;52.124;6.018;2022-07-21T09:21:59;31.15;;;20.20;;
47599;SDS011;33323;52.124;6.018;2022-07-21T09:24:34;34.03;;;22.40;;
47599;SDS011;33323;52.124;6.018;2022-07-21T09:32:33;34.17;;;21.10;;
47599;SDS011;33323;52.124;6.018;2022-07-21T09:37:36;33.80;;;22.00;;
47599;SDS011;33323;52.124;6.018;2022-07-21T09:40:08;36.67;;;21.20;;
47599;SDS011;33323;52.124;6.018;2022-07-21T09:42:40;36.60;;;22.73;;
47599;SDS011;33323;52.124;6.018;2022-07-21T09:45:16;34.17;;;22.50;;
47599;SDS011;33323;52.124;6.018;2022-07-21T09:47:44;37.38;;;22.77;;
47599;SDS011;33323;52.124;6.018;2022-07-21T09:50:14;42.88;;;24.75;;
47599;SDS011;33323;52.124;6.018;2022-07-21T09:52:50;41.83;;;23.35;;
47599;SDS011;33323;52.124;6.018;2022-07-21T09:55:20;30.33;;;20.15;;
47599;SDS011;33323;52.124;6.018;2022-07-21T09:57:47;30.38;;;18.90;;
47599;SDS011;33323;52.124;6.018;2022-07-21T10:00:17;29.13;;;18.52;;
47599;SDS011;33323;52.124;6.018;2022-07-21T10:02:46;22.90;;;15.77;;
47599;SDS011;33323;52.124;6.018;2022-07-21T10:05:16;21.27;;;14.93;;
47599;SDS011;33323;52.124;6.018;2022-07-21T10:07:56;19.52;;;13.63;;
47599;SDS011;33323;52.124;6.018;2022-07-21T10:10:31;20.67;;;13.50;;
47599;SDS011;33323;52.124;6.018;2022-07-21T10:13:20;20.70;;;12.32;;
47599;SDS011;33323;52.124;6.018;2022-07-21T10:15:49;18.00;;;11.35;;
47599;SDS011;33323;52.124;6.018;2022-07-21T10:18:17;16.27;;;10.65;;
47599;SDS011;33323;52.124;6.018;2022-07-21T10:20:47;15.60;;;9.95;;
47599;SDS011;33323;52.124;6.018;2022-07-21T10:26:03;13.98;;;8.50;;
47599;SDS011;33323;52.124;6.018;2022-07-21T10:28:34;14.63;;;9.18;;
47599;SDS011;33323;52.124;6.018;2022-07-21T10:41:41;11.32;;;6.88;;
47599;SDS011;33323;52.124;6.018;2022-07-21T10:50:04;9.30;;;5.95;;
47599;SDS011;33323;52.124;6.018;2022-07-21T10:57:44;5.78;;;4.65;;
47599;SDS011;33323;52.124;6.018;2022-07-21T11:00:19;7.03;;;5.15;;
47599;SDS011;33323;52.124;6.018;2022-07-21T11:02:59;8.15;;;4.60;;
47599;SDS011;33323;52.124;6.018;2022-07-21T11:05:29;5.50;;;3.83;;
47599;SDS011;33323;52.124;6.018;2022-07-21T11:10:49;5.18;;;4.03;;
47599;SDS011;33323;52.124;6.018;2022-07-21T11:13:19;7.50;;;4.50;;
47599;SDS011;33323;52.124;6.018;2022-07-21T11:15:56;5.15;;;4.10;;
47599;SDS011;33323;52.124;6.018;2022-07-21T11:18:27;5.80;;;4.28;;
47599;SDS011;33323;52.124;6.018;2022-07-21T11:21:01;5.20;;;4.05;;
47599;SDS011;33323;52.124;6.018;2022-07-21T11:23:43;8.65;;;4.30;;
47599;SDS011;33323;52.124;6.018;2022-07-21T11:26:17;7.30;;;4.57;;
47599;SDS011;33323;52.124;6.018;2022-07-21T11:29:03;6.63;;;4.15;;
47599;SDS011;33323;52.124;6.018;2022-07-21T11:31:32;7.38;;;4.80;;
47599;SDS011;33323;52.124;6.018;2022-07-21T11:34:12;5.90;;;4.63;;
47599;SDS011;33323;52.124;6.018;2022-07-21T11:36:40;8.30;;;5.18;;
47599;SDS011;33323;52.124;6.018;2022-07-21T11:39:11;9.85;;;5.00;;
47599;SDS011;33323;52.124;6.018;2022-07-21T11:41:42;6.18;;;5.00;;
47599;SDS011;33323;52.124;6.018;2022-07-21T11:44:10;7.35;;;4.88;;
47599;SDS011;33323;52.124;6.018;2022-07-21T11:46:49;7.18;;;5.57;;
47599;SDS011;33323;52.124;6.018;2022-07-21T11:49:23;7.00;;;5.17;;
47599;SDS011;33323;52.124;6.018;2022-07-21T11:54:23;6.32;;;4.63;;
47599;SDS011;33323;52.124;6.018;2022-07-21T11:56:54;6.75;;;4.88;;
47599;SDS011;33323;52.124;6.018;2022-07-21T11:59:23;6.43;;;4.53;;
47599;SDS011;33323;52.124;6.018;2022-07-21T12:01:54;4.55;;;4.03;;
47599;SDS011;33323;52.124;6.018;2022-07-21T12:04:29;5.88;;;4.45;;
47599;SDS011;33323;52.124;6.018;2022-07-21T12:07:25;10.05;;;5.07;;
47599;SDS011;33323;52.124;6.018;2022-07-21T12:10:38;4.85;;;4.35;;
47599;SDS011;33323;52.124;6.018;2022-07-21T12:13:05;5.30;;;4.15;;
47599;SDS011;33323;52.124;6.018;2022-07-21T12:15:36;6.50;;;4.43;;
47599;SDS011;33323;52.124;6.018;2022-07-21T12:18:05;5.20;;;4.03;;
47599;SDS011;33323;52.124;6.018;2022-07-21T12:20:43;6.47;;;3.88;;
47599;SDS011;33323;52.124;6.018;2022-07-21T12:23:22;5.70;;;3.58;;
47599;SDS011;33323;52.124;6.018;2022-07-21T12:25:57;4.72;;;3.17;;
47599;SDS011;33323;52.124;6.018;2022-07-21T12:28:46;4.13;;;3.70;;
47599;SDS011;33323;52.124;6.018;2022-07-21T12:31:16;5.07;;;4.13;;
47599;SDS011;33323;52.124;6.018;2022-07-21T12:33:50;6.40;;;4.65;;
47599;SDS011;33323;52.124;6.018;2022-07-21T12:36:42;6.10;;;4.38;;
47599;SDS011;33323;52.124;6.018;2022-07-21T12:39:14;4.80;;;4.10;;
47599;SDS011;33323;52.124;6.018;2022-07-21T12:42:05;4.38;;;3.97;;
47599;SDS011;33323;52.124;6.018;2022-07-21T12:44:34;6.55;;;4.53;;
47599;SDS011;33323;52.124;6.018;2022-07-21T12:47:16;4.32;;;3.92;;
47599;SDS011;33323;52.124;6.018;2022-07-21T12:49:53;3.65;;;3.30;;
47599;SDS011;33323;52.124;6.018;2022-07-21T12:52:44;4.47;;;4.05;;
47599;SDS011;33323;52.124;6.018;2022-07-21T12:55:11;4.30;;;3.67;;
47599;SDS011;33323;52.124;6.018;2022-07-21T12:57:38;4.60;;;3.90;;
47599;SDS011;33323;52.124;6.018;2022-07-21T13:00:05;5.55;;;3.47;;
47599;SDS011;33323;52.124;6.018;2022-07-21T13:02:44;3.95;;;2.88;;
47599;SDS011;33323;52.124;6.018;2022-07-21T13:05:14;4.32;;;3.03;;
47599;SDS011;33323;52.124;6.018;2022-07-21T13:07:41;3.00;;;2.50;;
47599;SDS011;33323;52.124;6.018;2022-07-21T13:10:08;2.40;;;1.98;;
47599;SDS011;33323;52.124;6.018;2022-07-21T13:12:35;3.40;;;2.42;;
47599;SDS011;33323;52.124;6.018;2022-07-21T13:15:03;2.72;;;2.08;;
47599;SDS011;33323;52.124;6.018;2022-07-21T13:17:31;3.15;;;1.98;;
47599;SDS011;33323;52.124;6.018;2022-07-21T13:19:58;3.97;;;2.17;;
47599;SDS011;33323;52.124;6.018;2022-07-21T13:22:32;3.03;;;2.40;;
47599;SDS011;33323;52.124;6.018;2022-07-21T13:24:59;2.63;;;2.15;;
47599;SDS011;33323;52.124;6.018;2022-07-21T13:27:26;2.25;;;2.00;;
47599;SDS011;33323;52.124;6.018;2022-07-21T13:29:53;1.88;;;1.67;;
47599;SDS011;33323;52.124;6.018;2022-07-21T13:32:20;3.47;;;1.95;;
47599;SDS011;33323;52.124;6.018;2022-07-21T13:34:48;2.72;;;1.88;;
47599;SDS011;33323;52.124;6.018;2022-07-21T13:37:35;3.45;;;2.20;;
47599;SDS011;33323;52.124;6.018;2022-07-21T13:40:04;3.30;;;1.75;;
47599;SDS011;33323;52.124;6.018;2022-07-21T13:42:52;2.38;;;1.50;;
47599;SDS011;33323;52.124;6.018;2022-07-21T13:45:39;2.33;;;1.70;;
47599;SDS011;33323;52.124;6.018;2022-07-21T13:48:06;2.38;;;1.90;;
47599;SDS011;33323;52.124;6.018;2022-07-21T13:50:33;2.88;;;2.30;;
47599;SDS011;33323;52.124;6.018;2022-07-21T13:53:00;3.95;;;2.25;;
47599;SDS011;33323;52.124;6.018;2022-07-21T13:55:27;4.65;;;2.60;;
47599;SDS011;33323;52.124;6.018;2022-07-21T13:57:54;2.50;;;2.20;;
47599;SDS011;33323;52.124;6.018;2022-07-21T14:00:21;4.70;;;2.25;;
47599;SDS011;33323;52.124;6.018;2022-07-21T14:02:49;3.20;;;2.90;;
47599;SDS011;33323;52.124;6.018;2022-07-21T14:05:16;2.78;;;2.25;;
47599;SDS011;33323;52.124;6.018;2022-07-21T14:07:43;2.83;;;2.08;;
47599;SDS011;33323;52.124;6.018;2022-07-21T14:10:11;4.40;;;2.17;;
47599;SDS011;33323;52.124;6.018;2022-07-21T14:12:38;3.90;;;2.20;;
47599;SDS011;33323;52.124;6.018;2022-07-21T14:15:08;3.40;;;2.78;;
47599;SDS011;33323;52.124;6.018;2022-07-21T14:17:36;2.95;;;2.50;;
47599;SDS011;33323;52.124;6.018;2022-07-21T14:20:03;4.10;;;2.78;;
47599;SDS011;33323;52.124;6.018;2022-07-21T14:22:31;2.65;;;2.40;;
47599;SDS011;33323;52.124;6.018;2022-07-21T14:24:58;3.22;;;2.55;;
47599;SDS011;33323;52.124;6.018;2022-07-21T14:27:45;4.60;;;3.22;;
47599;SDS011;33323;52.124;6.018;2022-07-21T14:30:17;3.97;;;2.70;;
47599;SDS011;33323;52.124;6.018;2022-07-21T14:32:46;4.20;;;2.53;;
47599;SDS011;33323;52.124;6.018;2022-07-21T14:35:14;7.75;;;3.45;;
47599;SDS011;33323;52.124;6.018;2022-07-21T14:37:43;3.67;;;2.88;;
47599;SDS011;33323;52.124;6.018;2022-07-21T14:40:10;5.80;;;2.50;;
47599;SDS011;33323;52.124;6.018;2022-07-21T14:42:38;3.97;;;2.90;;
47599;SDS011;33323;52.124;6.018;2022-07-21T14:45:06;2.38;;;2.05;;
47599;SDS011;33323;52.124;6.018;2022-07-21T14:47:39;5.10;;;2.72;;
47599;SDS011;33323;52.124;6.018;2022-07-21T14:50:06;4.13;;;2.72;;
47599;SDS011;33323;52.124;6.018;2022-07-21T14:52:34;3.80;;;2.53;;
47599;SDS011;33323;52.124;6.018;2022-07-21T14:55:01;2.95;;;2.13;;
47599;SDS011;33323;52.124;6.018;2022-07-21T14:57:28;5.18;;;2.17;;
47599;SDS011;33323;52.124;6.018;2022-07-21T14:59:57;2.72;;;2.42;;
47599;SDS011;33323;52.124;6.018;2022-07-21T15:02:25;2.47;;;2.20;;
47599;SDS011;33323;52.124;6.018;2022-07-21T15:04:52;4.50;;;2.40;;
47599;SDS011;33323;52.124;6.018;2022-07-21T15:07:19;3.75;;;2.95;;
47599;SDS011;33323;52.124;6.018;2022-07-21T15:09:46;5.15;;;3.85;;
47599;SDS011;33323;52.124;6.018;2022-07-21T15:12:13;5.03;;;2.40;;
47599;SDS011;33323;52.124;6.018;2022-07-21T15:14:41;2.72;;;2.45;;
47599;SDS011;33323;52.124;6.018;2022-07-21T15:17:08;3.38;;;2.63;;
47599;SDS011;33323;52.124;6.018;2022-07-21T15:19:35;2.90;;;2.28;;
47599;SDS011;33323;52.124;6.018;2022-07-21T15:22:03;4.25;;;2.17;;
47599;SDS011;33323;52.124;6.018;2022-07-21T15:24:30;5.13;;;2.60;;
47599;SDS011;33323;52.124;6.018;2022-07-21T15:26:57;2.78;;;2.20;;